sensor_id;sensor_type;location;lat;lon;timestamp;pressure;altitude;pressure_sealevel;temperature;humidity
8543;BME280;4309;42.658;23.380;2023-02-15T00:00:25;95935.59;;;2.39;76.41
8543;BME280;4309;42.658;23.380;2023-02-15T00:01:05;95935.75;;;2.37;76.66
8543;BME280;4309;42.658;23.380;2023-02-15T00:02:19;95944.97;;;2.49;77.15
8543;BME280;4309;42.658;23.380;2023-02-15T00:02:52;95943.88;;;2.52;76.91
8543;BME280;4309;42.658;23.380;2023-02-15T00:03:24;95938.31;;;2.47;75.97
8543;BME280;4309;42.658;23.380;2023-02-15T00:03:56;95942.25;;;2.51;76.14
8543;BME280;4309;42.658;23.380;2023-02-15T00:04:29;95944.41;;;2.55;76.63
8543;BME280;4309;42.658;23.380;2023-02-15T00:05:17;95946.03;;;2.47;75.96
8543;BME280;4309;42.658;23.380;2023-02-15T00:05:51;95941.44;;;2.41;76.66
8543;BME280;4309;42.658;23.380;2023-02-15T00:06:23;95938.06;;;2.40;76.26
8543;BME280;4309;42.658;23.380;2023-02-15T00:06:54;95941.72;;;2.38;76.35
8543;BME280;4309;42.658;23.380;2023-02-15T00:07:26;95945.53;;;2.43;76.44
8543;BME280;4309;42.658;23.380;2023-02-15T00:08:00;95942.53;;;2.48;77.13
8543;BME280;4309;42.658;23.380;2023-02-15T00:08:32;95942.56;;;2.38;76.69
8543;BME280;4309;42.658;23.380;2023-02-15T00:09:04;95940.13;;;2.37;76.36
8543;BME280;4309;42.658;23.380;2023-02-15T00:09:37;95947.16;;;2.35;77.21
8543;BME280;4309;42.658;23.380;2023-02-15T00:10:09;95944.47;;;2.17;76.75
8543;BME280;4309;42.658;23.380;2023-02-15T00:10:42;95947.88;;;2.18;77.97
8543;BME280;4309;42.658;23.380;2023-02-15T00:11:17;95946.50;;;2.23;78.17
8543;BME280;4309;42.658;23.380;2023-02-15T00:12:11;95941.50;;;2.12;77.68
8543;BME280;4309;42.658;23.380;2023-02-15T00:12:44;95952.34;;;2.16;78.70
8543;BME280;4309;42.658;23.380;2023-02-15T00:13:16;95948.28;;;2.23;78.25
8543;BME280;4309;42.658;23.380;2023-02-15T00:13:48;95952.34;;;2.25;78.48
8543;BME280;4309;42.658;23.380;2023-02-15T00:14:21;95950.31;;;2.29;77.63
8543;BME280;4309;42.658;23.380;2023-02-15T00:14:54;95951.13;;;2.29;77.40
8543;BME280;4309;42.658;23.380;2023-02-15T00:15:26;95958.47;;;2.34;77.52
8543;BME280;4309;42.658;23.380;2023-02-15T00:16:01;95949.91;;;2.33;77.40
8543;BME280;4309;42.658;23.380;2023-02-15T00:16:34;95951.38;;;2.36;77.85
8543;BME280;4309;42.658;23.380;2023-02-15T00:17:06;95959.09;;;2.36;77.20
8543;BME280;4309;42.658;23.380;2023-02-15T00:17:40;95953.72;;;2.29;77.61
8543;BME280;4309;42.658;23.380;2023-02-15T00:18:11;95950.56;;;2.35;78.07
8543;BME280;4309;42.658;23.380;2023-02-15T00:18:42;95957.22;;;2.28;77.59
8543;BME280;4309;42.658;23.380;2023-02-15T00:19:15;95951.66;;;2.23;77.42
8543;BME280;4309;42.658;23.380;2023-02-15T00:19:48;95958.47;;;2.24;78.42
8543;BME280;4309;42.658;23.380;2023-02-15T00:20:21;95956.72;;;2.15;78.07
8543;BME280;4309;42.658;23.380;2023-02-15T00:20:53;95952.34;;;2.16;78.55
8543;BME280;4309;42.658;23.380;2023-02-15T00:21:25;95959.69;;;2.20;78.55
8543;BME280;4309;42.658;23.380;2023-02-15T00:21:58;95949.22;;;2.22;78.40
8543;BME280;4309;42.658;23.380;2023-02-15T00:22:30;95950.31;;;2.29;78.38
8543;BME280;4309;42.658;23.380;2023-02-15T00:23:03;95955.06;;;2.24;78.73
8543;BME280;4309;42.658;23.380;2023-02-15T00:23:35;95954.66;;;2.28;78.50
8543;BME280;4309;42.658;23.380;2023-02-15T00:24:09;95957.38;;;2.27;78.40
8543;BME280;4309;42.658;23.380;2023-02-15T00:24:42;95955.06;;;2.24;79.07
8543;BME280;4309;42.658;23.380;2023-02-15T00:25:14;95956.44;;;2.28;77.80
8543;BME280;4309;42.658;23.380;2023-02-15T00:25:46;95960.91;;;2.35;78.04
8543;BME280;4309;42.658;23.380;2023-02-15T00:26:19;95950.97;;;2.40;77.76
8543;BME280;4309;42.658;23.380;2023-02-15T00:26:51;95954.63;;;2.38;78.38
8543;BME280;4309;42.658;23.380;2023-02-15T00:27:24;95959.09;;;2.36;77.40
8543;BME280;4309;42.658;23.380;2023-02-15T00:27:56;95952.34;;;2.35;77.29
8543;BME280;4309;42.658;23.380;2023-02-15T00:28:29;95952.63;;;2.32;78.41
8543;BME280;4309;42.658;23.380;2023-02-15T00:29:01;95950.31;;;2.29;77.82
8543;BME280;4309;42.658;23.380;2023-02-15T00:29:35;95954.50;;;2.30;77.91
8543;BME280;4309;42.658;23.380;2023-02-15T00:30:07;95957.78;;;2.32;78.13
8543;BME280;4309;42.658;23.380;2023-02-15T00:30:40;95958.88;;;2.20;78.27
8543;BME280;4309;42.658;23.380;2023-02-15T00:31:11;95961.31;;;2.21;78.40
8543;BME280;4309;42.658;23.380;2023-02-15T00:31:43;95959.41;;;2.23;78.70
8543;BME280;4309;42.658;23.380;2023-02-15T00:32:16;95967.13;;;2.23;78.79
8543;BME280;4309;42.658;23.380;2023-02-15T00:32:50;95965.38;;;2.24;78.86
8543;BME280;4309;42.658;23.380;2023-02-15T00:33:24;95958.88;;;2.29;78.51
8543;BME280;4309;42.658;23.380;2023-02-15T00:34:01;95952.88;;;2.29;78.50
8543;BME280;4309;42.658;23.380;2023-02-15T00:34:34;95964.69;;;2.31;78.66
8543;BME280;4309;42.658;23.380;2023-02-15T00:35:06;95958.19;;;2.27;78.75
8543;BME280;4309;42.658;23.380;2023-02-15T00:35:38;95963.75;;;2.32;78.51
8543;BME280;4309;42.658;23.380;2023-02-15T00:36:10;95949.06;;;2.33;78.17
8543;BME280;4309;42.658;23.380;2023-02-15T00:36:43;95958.19;;;2.37;78.09
8543;BME280;4309;42.658;23.380;2023-02-15T00:37:15;95962.50;;;2.36;77.79
8543;BME280;4309;42.658;23.380;2023-02-15T00:37:47;95959.09;;;2.36;78.23
8543;BME280;4309;42.658;23.380;2023-02-15T00:38:20;95953.72;;;2.29;78.42
8543;BME280;4309;42.658;23.380;2023-02-15T00:38:52;95956.69;;;2.25;78.15
8543;BME280;4309;42.658;23.380;2023-02-15T00:39:27;95957.94;;;2.21;78.33
8543;BME280;4309;42.658;23.380;2023-02-15T00:40:00;95960.38;;;2.22;78.89
8543;BME280;4309;42.658;23.380;2023-02-15T00:40:32;95957.50;;;2.25;78.53
8543;BME280;4309;42.658;23.380;2023-02-15T00:41:05;95964.84;;;2.30;78.68
8543;BME280;4309;42.658;23.380;2023-02-15T00:41:39;95957.78;;;2.32;78.22
8543;BME280;4309;42.658;23.380;2023-02-15T00:42:10;95960.50;;;2.30;78.37
8543;BME280;4309;42.658;23.380;2023-02-15T00:42:43;95960.22;;;2.33;77.70
8543;BME280;4309;42.658;23.380;2023-02-15T00:43:15;95966.22;;;2.15;78.15
8543;BME280;4309;42.658;23.380;2023-02-15T00:43:47;95966.78;;;2.09;78.24
8543;BME280;4309;42.658;23.380;2023-02-15T00:44:19;95968.38;;;2.10;77.94
8543;BME280;4309;42.658;23.380;2023-02-15T00:44:52;95962.94;;;2.13;78.36
8543;BME280;4309;42.658;23.380;2023-02-15T00:45:23;95966.91;;;2.17;78.79
8543;BME280;4309;42.658;23.380;2023-02-15T00:45:55;95963.38;;;2.18;78.44
8543;BME280;4309;42.658;23.380;2023-02-15T00:46:28;95957.38;;;2.17;79.00
8543;BME280;4309;42.658;23.380;2023-02-15T00:47:00;95959.53;;;2.22;78.15
8543;BME280;4309;42.658;23.380;2023-02-15T00:47:34;95960.50;;;2.21;78.28
8543;BME280;4309;42.658;23.380;2023-02-15T00:48:07;95968.94;;;2.23;79.17
8543;BME280;4309;42.658;23.380;2023-02-15T00:48:39;95959.13;;;2.26;79.08
8543;BME280;4309;42.658;23.380;2023-02-15T00:49:11;95959.66;;;2.30;77.83
8543;BME280;4309;42.658;23.380;2023-02-15T00:49:42;95962.25;;;2.30;77.48
8543;BME280;4309;42.658;23.380;2023-02-15T00:50:14;95964.19;;;2.28;77.81
8543;BME280;4309;42.658;23.380;2023-02-15T00:50:49;95965.78;;;2.29;78.04
8543;BME280;4309;42.658;23.380;2023-02-15T00:51:22;95961.31;;;2.31;78.04
8543;BME280;4309;42.658;23.380;2023-02-15T00:51:54;95967.53;;;2.28;78.29
8543;BME280;4309;42.658;23.380;2023-02-15T00:52:27;95963.50;;;2.26;78.60
8543;BME280;4309;42.658;23.380;2023-02-15T00:52:59;95966.75;;;2.28;78.60
8543;BME280;4309;42.658;23.380;2023-02-15T00:53:31;95962.38;;;2.28;78.27
8543;BME280;4309;42.658;23.380;2023-02-15T00:54:04;95962.09;;;2.31;78.50
8543;BME280;4309;42.658;23.380;2023-02-15T00:54:36;95960.50;;;2.30;78.58
8543;BME280;4309;42.658;23.380;2023-02-15T00:55:08;95954.38;;;2.31;78.71
8543;BME280;4309;42.658;23.380;2023-02-15T00:55:41;95960.50;;;2.30;78.08
8543;BME280;4309;42.658;23.380;2023-02-15T00:56:15;95956.16;;;2.31;77.67
8543;BME280;4309;42.658;23.380;2023-02-15T00:56:47;95960.22;;;2.24;78.66
8543;BME280;4309;42.658;23.380;2023-02-15T00:57:19;95959.16;;;2.17;78.53
8543;BME280;4309;42.658;23.380;2023-02-15T00:57:54;95958.59;;;2.23;79.07
8543;BME280;4309;42.658;23.380;2023-02-15T00:58:26;95953.84;;;2.28;78.55
8543;BME280;4309;42.658;23.380;2023-02-15T00:58:58;95954.94;;;2.25;78.63
8543;BME280;4309;42.658;23.380;2023-02-15T00:59:31;95950.59;;;2.26;78.50
8543;BME280;4309;42.658;23.380;2023-02-15T01:00:04;95955.47;;;2.29;78.80
8543;BME280;4309;42.658;23.380;2023-02-15T01:00:37;95956.31;;;2.20;77.58
8543;BME280;4309;42.658;23.380;2023-02-15T01:01:13;95954.66;;;2.19;78.38
8543;BME280;4309;42.658;23.380;2023-02-15T01:01:44;95958.19;;;2.18;78.72
8543;BME280;4309;42.658;23.380;2023-02-15T01:02:17;95948.94;;;2.25;78.79
8543;BME280;4309;42.658;23.380;2023-02-15T01:02:50;95955.47;;;2.29;78.84
8543;BME280;4309;42.658;23.380;2023-02-15T01:03:23;95950.03;;;2.32;78.65
8543;BME280;4309;42.658;23.380;2023-02-15T01:03:55;95957.78;;;2.32;78.50
8543;BME280;4309;42.658;23.380;2023-02-15T01:04:30;95955.75;;;2.35;78.53
8543;BME280;4309;42.658;23.380;2023-02-15T01:05:02;95950.72;;;2.34;78.05
8543;BME280;4309;42.658;23.380;2023-02-15T01:05:34;95951.78;;;2.41;77.83
8543;BME280;4309;42.658;23.380;2023-02-15T01:06:06;95953.94;;;2.36;77.56
8543;BME280;4309;42.658;23.380;2023-02-15T01:06:39;95950.72;;;2.34;78.54
8543;BME280;4309;42.658;23.380;2023-02-15T01:07:11;95948.00;;;2.35;78.00
8543;BME280;4309;42.658;23.380;2023-02-15T01:07:43;95947.84;;;2.37;77.57
8543;BME280;4309;42.658;23.380;2023-02-15T01:08:16;95945.16;;;2.29;77.86
8543;BME280;4309;42.658;23.380;2023-02-15T01:08:49;95951.13;;;2.29;77.75
8543;BME280;4309;42.658;23.380;2023-02-15T01:09:21;95935.78;;;2.28;78.25
8543;BME280;4309;42.658;23.380;2023-02-15T01:09:52;95953.16;;;2.26;78.30
8543;BME280;4309;42.658;23.380;2023-02-15T01:10:24;95949.47;;;2.28;78.63
8543;BME280;4309;42.658;23.380;2023-02-15T01:10:56;95948.56;;;2.29;77.68
8543;BME280;4309;42.658;23.380;2023-02-15T01:11:28;95947.84;;;2.37;77.86
8543;BME280;4309;42.658;23.380;2023-02-15T01:11:59;95946.47;;;2.33;78.59
8543;BME280;4309;42.658;23.380;2023-02-15T01:12:30;95943.63;;;2.36;77.42
8543;BME280;4309;42.658;23.380;2023-02-15T01:13:03;95944.59;;;2.35;78.33
8543;BME280;4309;42.658;23.380;2023-02-15T01:13:35;95948.78;;;2.36;78.30
8543;BME280;4309;42.658;23.380;2023-02-15T01:14:07;95947.16;;;2.35;77.40
8543;BME280;4309;42.658;23.380;2023-02-15T01:14:41;95947.44;;;2.32;77.80
8543;BME280;4309;42.658;23.380;2023-02-15T01:15:14;95954.09;;;2.25;77.79
8543;BME280;4309;42.658;23.380;2023-02-15T01:15:46;95950.59;;;2.26;77.31
8543;BME280;4309;42.658;23.380;2023-02-15T01:16:25;95946.22;;;2.26;77.62
8543;BME280;4309;42.658;23.380;2023-02-15T01:16:58;95952.22;;;2.27;78.33
8543;BME280;4309;42.658;23.380;2023-02-15T01:17:30;95950.16;;;2.30;78.47
8543;BME280;4309;42.658;23.380;2023-02-15T01:18:03;95949.34;;;2.30;77.76
8543;BME280;4309;42.658;23.380;2023-02-15T01:18:37;95947.59;;;2.30;77.71
8543;BME280;4309;42.658;23.380;2023-02-15T01:19:09;95949.22;;;2.31;77.79
8543;BME280;4309;42.658;23.380;2023-02-15T01:19:42;95944.19;;;2.20;77.56
8543;BME280;4309;42.658;23.380;2023-02-15T01:20:14;95940.41;;;2.24;77.76
8543;BME280;4309;42.658;23.380;2023-02-15T01:20:46;95940.41;;;2.24;77.88
8543;BME280;4309;42.658;23.380;2023-02-15T01:21:20;95943.00;;;2.15;77.69
8543;BME280;4309;42.658;23.380;2023-02-15T01:21:52;95947.06;;;2.17;78.91
8543;BME280;4309;42.658;23.380;2023-02-15T01:22:24;95940.56;;;2.13;78.95
8543;BME280;4309;42.658;23.380;2023-02-15T01:22:58;95946.94;;;2.09;78.85
8543;BME280;4309;42.658;23.380;2023-02-15T01:23:30;95945.56;;;2.15;78.07
8543;BME280;4309;42.658;23.380;2023-02-15T01:24:04;95945.31;;;2.18;78.96
8543;BME280;4309;42.658;23.380;2023-02-15T01:24:37;95945.44;;;2.16;78.74
8543;BME280;4309;42.658;23.380;2023-02-15T01:25:09;95941.25;;;2.15;78.84
8543;BME280;4309;42.658;23.380;2023-02-15T01:25:41;95947.75;;;2.19;78.42
8543;BME280;4309;42.658;23.380;2023-02-15T01:26:13;95940.41;;;2.24;78.12
8543;BME280;4309;42.658;23.380;2023-02-15T01:26:46;95944.19;;;2.30;78.04
8543;BME280;4309;42.658;23.380;2023-02-15T01:27:18;95945.16;;;2.29;78.64
8543;BME280;4309;42.658;23.380;2023-02-15T01:27:50;95942.84;;;2.26;77.83
8543;BME280;4309;42.658;23.380;2023-02-15T01:28:23;95940.28;;;2.26;78.50
8543;BME280;4309;42.658;23.380;2023-02-15T01:28:53;95936.72;;;2.27;77.58
8543;BME280;4309;42.658;23.380;2023-02-15T01:29:26;95936.31;;;2.22;78.79
8543;BME280;4309;42.658;23.380;2023-02-15T01:29:59;95942.16;;;2.24;78.16
8543;BME280;4309;42.658;23.380;2023-02-15T01:30:31;95932.25;;;2.29;78.13
8543;BME280;4309;42.658;23.380;2023-02-15T01:31:08;95935.50;;;2.31;78.03
8543;BME280;4309;42.658;23.380;2023-02-15T01:31:41;95938.63;;;2.25;77.85
8543;BME280;4309;42.658;23.380;2023-02-15T01:32:13;95929.94;;;2.26;77.85
8543;BME280;4309;42.658;23.380;2023-02-15T01:32:45;95936.03;;;2.25;77.78
8543;BME280;4309;42.658;23.380;2023-02-15T01:33:18;95933.75;;;2.22;78.48
8543;BME280;4309;42.658;23.380;2023-02-15T01:33:51;95937.00;;;2.24;78.48
8543;BME280;4309;42.658;23.380;2023-02-15T01:34:23;95935.25;;;2.24;78.85
8543;BME280;4309;42.658;23.380;2023-02-15T01:34:57;95929.94;;;2.26;78.54
8543;BME280;4309;42.658;23.380;2023-02-15T01:35:29;95924.78;;;2.26;78.64
8543;BME280;4309;42.658;23.380;2023-02-15T01:36:01;95935.09;;;2.26;78.82
8543;BME280;4309;42.658;23.380;2023-02-15T01:36:33;95938.09;;;2.21;78.90
8543;BME280;4309;42.658;23.380;2023-02-15T01:37:06;95932.41;;;2.18;79.11
8543;BME280;4309;42.658;23.380;2023-02-15T01:37:38;95931.72;;;2.16;78.78
8543;BME280;4309;42.658;23.380;2023-02-15T01:38:11;95929.81;;;2.18;78.54
8543;BME280;4309;42.658;23.380;2023-02-15T01:38:44;95915.69;;;2.12;78.43
8543;BME280;4309;42.658;23.380;2023-02-15T01:39:16;95928.84;;;2.19;78.60
8543;BME280;4309;42.658;23.380;2023-02-15T01:39:48;95935.25;;;2.15;79.21
8543;BME280;4309;42.658;23.380;2023-02-15T01:40:22;95933.75;;;2.12;78.77
8543;BME280;4309;42.658;23.380;2023-02-15T01:40:54;95936.09;;;2.15;78.56
8543;BME280;4309;42.658;23.380;2023-02-15T01:41:48;95932.13;;;2.21;79.26
8543;BME280;4309;42.658;23.380;2023-02-15T01:42:22;95936.19;;;2.14;78.41
8543;BME280;4309;42.658;23.380;2023-02-15T01:42:54;95936.09;;;2.15;78.75
8543;BME280;4309;42.658;23.380;2023-02-15T01:43:39;95928.72;;;2.11;78.66
8543;BME280;4309;42.658;23.380;2023-02-15T01:44:45;95930.78;;;2.17;79.28
8543;BME280;4309;42.658;23.380;2023-02-15T01:45:20;95933.09;;;2.10;79.42
8543;BME280;4309;42.658;23.380;2023-02-15T01:45:54;95938.69;;;2.06;79.82
8543;BME280;4309;42.658;23.380;2023-02-15T01:46:28;95931.19;;;2.03;80.07
8543;BME280;4309;42.658;23.380;2023-02-15T01:47:02;95927.25;;;2.08;80.13
8543;BME280;4309;42.658;23.380;2023-02-15T01:47:38;95928.88;;;2.09;79.87
8543;BME280;4309;42.658;23.380;2023-02-15T01:48:19;95929.72;;;2.00;79.09
8543;BME280;4309;42.658;23.380;2023-02-15T01:48:57;95933.38;;;2.07;80.01
8543;BME280;4309;42.658;23.380;2023-02-15T01:49:32;95929.84;;;2.08;79.96
8543;BME280;4309;42.658;23.380;2023-02-15T01:50:10;95922.50;;;2.04;79.96
8543;BME280;4309;42.658;23.380;2023-02-15T01:50:46;95931.06;;;2.04;79.71
8543;BME280;4309;42.658;23.380;2023-02-15T01:52:50;95929.44;;;2.03;79.53
8543;BME280;4309;42.658;23.380;2023-02-15T01:53:28;95919.78;;;2.05;79.84
8543;BME280;4309;42.658;23.380;2023-02-15T01:54:06;95912.63;;;1.99;80.21
8543;BME280;4309;42.658;23.380;2023-02-15T01:54:44;95919.53;;;2.08;79.19
8543;BME280;4309;42.658;23.380;2023-02-15T01:55:18;95923.34;;;2.04;79.52
8543;BME280;4309;42.658;23.380;2023-02-15T01:55:54;95920.63;;;2.06;79.26
8543;BME280;4309;42.658;23.380;2023-02-15T01:56:30;95921.16;;;2.00;79.87
8543;BME280;4309;42.658;23.380;2023-02-15T01:57:09;95918.19;;;2.04;79.65
8543;BME280;4309;42.658;23.380;2023-02-15T01:57:43;95915.31;;;2.07;79.62
8543;BME280;4309;42.658;23.380;2023-02-15T01:58:17;95917.78;;;1.99;80.29
8543;BME280;4309;42.658;23.380;2023-02-15T01:58:53;95918.19;;;2.04;80.23
8543;BME280;4309;42.658;23.380;2023-02-15T01:59:27;95918.69;;;2.08;79.41
8543;BME280;4309;42.658;23.380;2023-02-15T02:00:02;95919.53;;;2.08;79.77
8543;BME280;4309;42.658;23.380;2023-02-15T02:00:38;95925.88;;;2.14;80.37
8543;BME280;4309;42.658;23.380;2023-02-15T02:01:10;95922.78;;;2.20;80.04
8543;BME280;4309;42.658;23.380;2023-02-15T02:01:43;95920.31;;;2.18;79.81
8543;BME280;4309;42.658;23.380;2023-02-15T02:02:17;95919.09;;;2.22;79.70
8543;BME280;4309;42.658;23.380;2023-02-15T02:02:51;95918.41;;;2.20;79.81
8543;BME280;4309;42.658;23.380;2023-02-15T02:03:32;95923.41;;;2.22;78.92
8543;BME280;4309;42.658;23.380;2023-02-15T02:04:13;95919.50;;;2.18;78.76
8543;BME280;4309;42.658;23.380;2023-02-15T02:04:49;95916.94;;;2.18;78.95
8543;BME280;4309;42.658;23.380;2023-02-15T02:05:21;95921.13;;;2.19;79.23
8543;BME280;4309;42.658;23.380;2023-02-15T02:05:55;95914.88;;;2.21;78.89
8543;BME280;4309;42.658;23.380;2023-02-15T02:06:26;95919.94;;;2.13;78.81
8543;BME280;4309;42.658;23.380;2023-02-15T02:06:58;95921.13;;;2.09;79.00
8543;BME280;4309;42.658;23.380;2023-02-15T02:07:34;95924.94;;;2.05;79.35
8543;BME280;4309;42.658;23.380;2023-02-15T02:08:08;95916.25;;;2.06;79.06
8543;BME280;4309;42.658;23.380;2023-02-15T02:08:41;95916.66;;;2.02;79.97
8543;BME280;4309;42.658;23.380;2023-02-15T02:09:14;95914.09;;;2.02;79.68
8543;BME280;4309;42.658;23.380;2023-02-15T02:09:47;95919.38;;;2.00;79.98
8543;BME280;4309;42.658;23.380;2023-02-15T02:10:21;95915.19;;;2.09;79.81
8543;BME280;4309;42.658;23.380;2023-02-15T02:10:52;95923.19;;;2.06;79.40
8543;BME280;4309;42.658;23.380;2023-02-15T02:11:25;95917.75;;;2.09;80.34
8543;BME280;4309;42.658;23.380;2023-02-15T02:11:58;95911.91;;;2.07;79.71
8543;BME280;4309;42.658;23.380;2023-02-15T02:12:31;95922.22;;;2.07;79.89
8543;BME280;4309;42.658;23.380;2023-02-15T02:13:06;95924.81;;;2.07;80.39
8543;BME280;4309;42.658;23.380;2023-02-15T02:13:39;95914.75;;;2.13;80.32
8543;BME280;4309;42.658;23.380;2023-02-15T02:14:11;95924.81;;;2.16;79.54
8543;BME280;4309;42.658;23.380;2023-02-15T02:14:45;95920.47;;;2.17;79.54
8543;BME280;4309;42.658;23.380;2023-02-15T02:15:19;95926.28;;;2.19;79.26
8543;BME280;4309;42.658;23.380;2023-02-15T02:15:57;95920.97;;;2.20;79.11
8543;BME280;4309;42.658;23.380;2023-02-15T02:16:40;95928.22;;;2.17;79.23
8543;BME280;4309;42.658;23.380;2023-02-15T02:17:17;95923.84;;;2.17;80.11
8543;BME280;4309;42.658;23.380;2023-02-15T02:18:03;95929.25;;;2.24;78.97
8543;BME280;4309;42.658;23.380;2023-02-15T02:18:48;95930.50;;;2.20;79.01
8543;BME280;4309;42.658;23.380;2023-02-15T02:19:55;95928.47;;;2.14;79.76
8543;BME280;4309;42.658;23.380;2023-02-15T02:20:49;95934.28;;;2.16;79.50
8543;BME280;4309;42.658;23.380;2023-02-15T02:22:53;95927.94;;;2.10;79.87
8543;BME280;4309;42.658;23.380;2023-02-15T02:23:55;95934.72;;;2.02;79.24
8543;BME280;4309;42.658;23.380;2023-02-15T02:24:58;95939.06;;;2.01;80.37
8543;BME280;4309;42.658;23.380;2023-02-15T02:27:26;95933.13;;;1.91;79.79
8543;BME280;4309;42.658;23.380;2023-02-15T02:28:08;95935.28;;;1.96;80.98
8543;BME280;4309;42.658;23.380;2023-02-15T02:30:39;95932.69;;;1.96;80.17
8543;BME280;4309;42.658;23.380;2023-02-15T02:31:35;95935.00;;;1.89;80.53
8543;BME280;4309;42.658;23.380;2023-02-15T02:32:49;95934.44;;;1.95;80.36
8543;BME280;4309;42.658;23.380;2023-02-15T02:33:32;95934.31;;;1.87;80.31
8543;BME280;4309;42.658;23.380;2023-02-15T02:34:14;95936.09;;;1.87;80.49
8543;BME280;4309;42.658;23.380;2023-02-15T02:34:52;95946.81;;;1.92;80.54
8543;BME280;4309;42.658;23.380;2023-02-15T02:35:32;95939.09;;;1.92;81.39
8543;BME280;4309;42.658;23.380;2023-02-15T02:36:15;95936.50;;;1.92;81.03
8543;BME280;4309;42.658;23.380;2023-02-15T02:36:58;95932.69;;;1.96;81.28
8543;BME280;4309;42.658;23.380;2023-02-15T02:37:39;95935.81;;;1.90;81.51
8543;BME280;4309;42.658;23.380;2023-02-15T02:38:23;95933.66;;;1.95;81.28
8543;BME280;4309;42.658;23.380;2023-02-15T02:39:09;95924.69;;;1.99;80.88
8543;BME280;4309;42.658;23.380;2023-02-15T02:39:51;95939.88;;;2.02;81.08
8543;BME280;4309;42.658;23.380;2023-02-15T02:40:37;95937.44;;;2.00;81.40
8543;BME280;4309;42.658;23.380;2023-02-15T02:41:17;95942.47;;;2.02;81.40
8543;BME280;4309;42.658;23.380;2023-02-15T02:41:58;95932.84;;;1.94;81.32
8543;BME280;4309;42.658;23.380;2023-02-15T02:42:36;95941.25;;;1.96;81.09
8543;BME280;4309;42.658;23.380;2023-02-15T02:43:14;95931.31;;;2.01;80.90
8543;BME280;4309;42.658;23.380;2023-02-15T02:43:51;95932.97;;;1.93;81.10
8543;BME280;4309;42.658;23.380;2023-02-15T02:44:29;95934.44;;;1.95;81.08
8543;BME280;4309;42.658;23.380;2023-02-15T02:45:07;95929.84;;;1.99;81.39
8543;BME280;4309;42.658;23.380;2023-02-15T02:45:41;95932.28;;;1.91;80.99
8543;BME280;4309;42.658;23.380;2023-02-15T02:46:20;95930.25;;;1.94;82.01
8543;BME280;4309;42.658;23.380;2023-02-15T02:46:59;95931.09;;;1.95;80.98
8543;BME280;4309;42.658;23.380;2023-02-15T02:47:39;95932.28;;;2.00;81.17
8543;BME280;4309;42.658;23.380;2023-02-15T02:48:15;95937.16;;;2.03;81.02
8543;BME280;4309;42.658;23.380;2023-02-15T02:48:50;95933.09;;;2.01;81.73
8543;BME280;4309;42.658;23.380;2023-02-15T02:49:33;95931.19;;;2.03;81.58
8543;BME280;4309;42.658;23.380;2023-02-15T02:50:09;95928.09;;;2.09;80.76
8543;BME280;4309;42.658;23.380;2023-02-15T02:50:44;95924.94;;;2.15;81.39
8543;BME280;4309;42.658;23.380;2023-02-15T02:51:16;95923.44;;;2.12;80.67
8543;BME280;4309;42.658;23.380;2023-02-15T02:51:58;95919.78;;;2.15;80.77
8543;BME280;4309;42.658;23.380;2023-02-15T02:52:42;95922.50;;;2.13;80.88
8543;BME280;4309;42.658;23.380;2023-02-15T02:53:14;95934.84;;;2.10;81.17
8543;BME280;4309;42.658;23.380;2023-02-15T02:53:50;95930.66;;;2.09;80.91
8543;BME280;4309;42.658;23.380;2023-02-15T02:54:22;95935.69;;;2.10;80.82
8543;BME280;4309;42.658;23.380;2023-02-15T02:54:54;95935.28;;;2.05;80.38
8543;BME280;4309;42.658;23.380;2023-02-15T02:55:29;95941.13;;;2.07;81.49
8543;BME280;4309;42.658;23.380;2023-02-15T02:56:09;95929.56;;;2.11;81.11
8543;BME280;4309;42.658;23.380;2023-02-15T02:56:47;95932.97;;;2.12;81.32
8543;BME280;4309;42.658;23.380;2023-02-15T02:57:22;95940.56;;;2.04;81.09
8543;BME280;4309;42.658;23.380;2023-02-15T02:58:01;95938.78;;;2.14;81.19
8543;BME280;4309;42.658;23.380;2023-02-15T02:58:41;95944.34;;;2.09;80.75
8543;BME280;4309;42.658;23.380;2023-02-15T02:59:18;95942.59;;;2.10;81.42
8543;BME280;4309;42.658;23.380;2023-02-15T02:59:54;95944.34;;;2.09;80.54
8543;BME280;4309;42.658;23.380;2023-02-15T03:00:32;95940.56;;;2.13;81.23
8543;BME280;4309;42.658;23.380;2023-02-15T03:02:14;95943.28;;;2.21;80.28
8543;BME280;4309;42.658;23.380;2023-02-15T03:02:52;95941.09;;;2.17;79.81
8543;BME280;4309;42.658;23.380;2023-02-15T03:03:28;95943.41;;;2.20;80.85
8543;BME280;4309;42.658;23.380;2023-02-15T03:04:06;95936.88;;;2.16;80.50
8543;BME280;4309;42.658;23.380;2023-02-15T03:04:45;95941.75;;;2.19;80.59
8543;BME280;4309;42.658;23.380;2023-02-15T03:05:21;95939.88;;;2.21;80.56
8543;BME280;4309;42.658;23.380;2023-02-15T03:05:58;95948.94;;;2.25;80.00
8543;BME280;4309;42.658;23.380;2023-02-15T03:06:37;95951.81;;;2.22;79.86
8543;BME280;4309;42.658;23.380;2023-02-15T03:07:14;95947.34;;;2.14;80.91
8543;BME280;4309;42.658;23.380;2023-02-15T03:07:54;95948.84;;;2.17;80.67
8543;BME280;4309;42.658;23.380;2023-02-15T03:08:37;95953.59;;;2.21;80.61
8543;BME280;4309;42.658;23.380;2023-02-15T03:09:23;95955.75;;;2.16;80.30
8543;BME280;4309;42.658;23.380;2023-02-15T03:09:58;95959.41;;;2.14;81.11
8543;BME280;4309;42.658;23.380;2023-02-15T03:10:30;95960.25;;;2.05;80.38
8543;BME280;4309;42.658;23.380;2023-02-15T03:11:04;95954.38;;;2.12;81.55
8543;BME280;4309;42.658;23.380;2023-02-15T03:11:37;95954.94;;;2.16;81.14
8543;BME280;4309;42.658;23.380;2023-02-15T03:12:11;95954.66;;;2.19;81.31
8543;BME280;4309;42.658;23.380;2023-02-15T03:12:45;95960.78;;;2.27;81.11
8543;BME280;4309;42.658;23.380;2023-02-15T03:13:17;95957.09;;;2.30;80.29
8543;BME280;4309;42.658;23.380;2023-02-15T03:13:50;95959.53;;;2.31;80.64
8543;BME280;4309;42.658;23.380;2023-02-15T03:14:24;95960.50;;;2.30;80.16
8543;BME280;4309;42.658;23.380;2023-02-15T03:14:59;95959.09;;;2.36;79.81
8543;BME280;4309;42.658;23.380;2023-02-15T03:15:35;95957.78;;;2.32;79.81
8543;BME280;4309;42.658;23.380;2023-02-15T03:16:27;95958.19;;;2.37;79.69
8543;BME280;4309;42.658;23.380;2023-02-15T03:17:01;95958.19;;;2.37;79.70
8543;BME280;4309;42.658;23.380;2023-02-15T03:17:37;95959.66;;;2.30;79.42
8543;BME280;4309;42.658;23.380;2023-02-15T03:18:11;95960.09;;;2.25;80.10
8543;BME280;4309;42.658;23.380;2023-02-15T03:18:46;95957.78;;;2.22;80.57
8543;BME280;4309;42.658;23.380;2023-02-15T03:19:26;95953.72;;;2.20;80.62
8543;BME280;4309;42.658;23.380;2023-02-15T03:20:03;95955.22;;;2.22;80.49
8543;BME280;4309;42.658;23.380;2023-02-15T03:20:37;95958.19;;;2.18;81.04